sensor_id;sensor_type;location;lat;lon;timestamp;P1;durP1;ratioP1;P2;durP2;ratioP2
23310;SDS011;11828;51.508;18.118;2023-02-10T00:01:22;85.13;;;28.95;;
23310;SDS011;11828;51.508;18.118;2023-02-10T00:03:51;87.55;;;29.52;;
23310;SDS011;11828;51.508;18.118;2023-02-10T00:06:19;78.13;;;27.67;;
23310;SDS011;11828;51.508;18.118;2023-02-10T00:08:49;79.28;;;30.13;;
23310;SDS011;11828;51.508;18.118;2023-02-10T00:11:21;62.47;;;24.70;;
23310;SDS011;11828;51.508;18.118;2023-02-10T00:14:08;69.30;;;24.52;;
23310;SDS011;11828;51.508;18.118;2023-02-10T00:16:35;64.15;;;22.65;;
23310;SDS011;11828;51.508;18.118;2023-02-10T00:19:02;64.00;;;23.00;;
23310;SDS011;11828;51.508;18.118;2023-02-10T00:21:29;60.85;;;21.60;;
23310;SDS011;11828;51.508;18.118;2023-02-10T00:23:55;61.50;;;23.55;;
23310;SDS011;11828;51.508;18.118;2023-02-10T00:26:21;70.30;;;23.98;;
23310;SDS011;11828;51.508;18.118;2023-02-10T00:28:48;63.33;;;25.35;;
23310;SDS011;11828;51.508;18.118;2023-02-10T00:31:15;66.00;;;23.50;;
23310;SDS011;11828;51.508;18.118;2023-02-10T00:33:45;71.78;;;24.88;;
23310;SDS011;11828;51.508;18.118;2023-02-10T00:36:11;66.80;;;23.27;;
23310;SDS011;11828;51.508;18.118;2023-02-10T00:38:40;55.80;;;21.42;;
23310;SDS011;11828;51.508;18.118;2023-02-10T00:41:14;52.88;;;20.38;;
23310;SDS011;11828;51.508;18.118;2023-02-10T00:43:43;57.53;;;21.83;;
23310;SDS011;11828;51.508;18.118;2023-02-10T00:46:11;67.55;;;23.08;;
23310;SDS011;11828;51.508;18.118;2023-02-10T00:48:39;55.72;;;21.05;;
23310;SDS011;11828;51.508;18.118;2023-02-10T00:51:05;49.47;;;20.08;;
23310;SDS011;11828;51.508;18.118;2023-02-10T00:53:32;49.65;;;19.23;;
23310;SDS011;11828;51.508;18.118;2023-02-10T00:55:59;50.15;;;19.25;;
23310;SDS011;11828;51.508;18.118;2023-02-10T00:58:26;43.33;;;17.58;;
23310;SDS011;11828;51.508;18.118;2023-02-10T01:00:53;42.30;;;18.42;;
23310;SDS011;11828;51.508;18.118;2023-02-10T01:03:19;51.67;;;19.38;;
23310;SDS011;11828;51.508;18.118;2023-02-10T01:05:46;58.05;;;21.17;;
23310;SDS011;11828;51.508;18.118;2023-02-10T01:08:13;42.10;;;17.83;;
23310;SDS011;11828;51.508;18.118;2023-02-10T01:10:41;46.17;;;19.20;;
23310;SDS011;11828;51.508;18.118;2023-02-10T01:13:08;40.08;;;16.80;;
23310;SDS011;11828;51.508;18.118;2023-02-10T01:15:40;44.95;;;18.60;;
23310;SDS011;11828;51.508;18.118;2023-02-10T01:18:12;40.13;;;17.10;;
23310;SDS011;11828;51.508;18.118;2023-02-10T01:20:39;44.20;;;16.65;;
23310;SDS011;11828;51.508;18.118;2023-02-10T01:23:07;45.70;;;18.52;;
23310;SDS011;11828;51.508;18.118;2023-02-10T01:25:35;39.47;;;15.38;;
23310;SDS011;11828;51.508;18.118;2023-02-10T01:28:02;38.00;;;15.73;;
23310;SDS011;11828;51.508;18.118;2023-02-10T01:30:29;39.40;;;15.75;;
23310;SDS011;11828;51.508;18.118;2023-02-10T01:32:56;38.05;;;14.90;;
23310;SDS011;11828;51.508;18.118;2023-02-10T01:35:22;39.88;;;15.90;;
23310;SDS011;11828;51.508;18.118;2023-02-10T01:37:48;41.72;;;16.45;;
23310;SDS011;11828;51.508;18.118;2023-02-10T01:40:15;41.05;;;15.88;;
23310;SDS011;11828;51.508;18.118;2023-02-10T01:42:41;39.30;;;14.88;;
23310;SDS011;11828;51.508;18.118;2023-02-10T01:45:12;44.65;;;16.92;;
23310;SDS011;11828;51.508;18.118;2023-02-10T01:47:51;41.30;;;16.38;;
23310;SDS011;11828;51.508;18.118;2023-02-10T01:50:20;36.10;;;15.13;;
23310;SDS011;11828;51.508;18.118;2023-02-10T01:52:52;48.78;;;16.80;;
23310;SDS011;11828;51.508;18.118;2023-02-10T01:55:20;37.30;;;15.15;;
23310;SDS011;11828;51.508;18.118;2023-02-10T01:57:55;41.75;;;15.77;;
23310;SDS011;11828;51.508;18.118;2023-02-10T02:00:21;37.83;;;16.23;;
23310;SDS011;11828;51.508;18.118;2023-02-10T02:02:49;40.20;;;16.05;;
23310;SDS011;11828;51.508;18.118;2023-02-10T02:08:01;38.67;;;16.35;;
23310;SDS011;11828;51.508;18.118;2023-02-10T02:10:38;34.30;;;16.50;;
23310;SDS011;11828;51.508;18.118;2023-02-10T02:14:21;38.13;;;15.80;;
23310;SDS011;11828;51.508;18.118;2023-02-10T02:26:34;37.85;;;15.35;;
23310;SDS011;11828;51.508;18.118;2023-02-10T02:33:17;37.13;;;15.48;;
23310;SDS011;11828;51.508;18.118;2023-02-10T02:35:32;31.77;;;13.85;;
23310;SDS011;11828;51.508;18.118;2023-02-10T02:38:08;34.58;;;14.38;;
23310;SDS011;11828;51.508;18.118;2023-02-10T02:40:35;34.60;;;14.43;;
23310;SDS011;11828;51.508;18.118;2023-02-10T02:43:02;50.45;;;15.15;;
23310;SDS011;11828;51.508;18.118;2023-02-10T02:51:18;36.20;;;13.90;;
23310;SDS011;11828;51.508;18.118;2023-02-10T02:57:05;41.97;;;15.57;;
23310;SDS011;11828;51.508;18.118;2023-02-10T02:59:46;41.63;;;14.77;;
23310;SDS011;11828;51.508;18.118;2023-02-10T03:02:17;32.95;;;14.32;;
23310;SDS011;11828;51.508;18.118;2023-02-10T03:04:45;46.65;;;15.82;;
23310;SDS011;11828;51.508;18.118;2023-02-10T03:07:13;39.97;;;15.70;;
23310;SDS011;11828;51.508;18.118;2023-02-10T03:09:40;41.05;;;16.38;;
23310;SDS011;11828;51.508;18.118;2023-02-10T03:12:06;43.40;;;16.58;;
23310;SDS011;11828;51.508;18.118;2023-02-10T03:14:33;39.67;;;16.50;;
23310;SDS011;11828;51.508;18.118;2023-02-10T03:16:59;42.63;;;16.85;;
23310;SDS011;11828;51.508;18.118;2023-02-10T03:19:25;39.70;;;17.08;;
23310;SDS011;11828;51.508;18.118;2023-02-10T03:21:51;38.10;;;15.65;;
23310;SDS011;11828;51.508;18.118;2023-02-10T03:24:18;37.35;;;16.00;;
23310;SDS011;11828;51.508;18.118;2023-02-10T03:26:45;39.35;;;16.08;;
23310;SDS011;11828;51.508;18.118;2023-02-10T03:29:12;35.55;;;14.90;;
23310;SDS011;11828;51.508;18.118;2023-02-10T03:31:39;40.10;;;15.70;;
23310;SDS011;11828;51.508;18.118;2023-02-10T03:34:06;39.55;;;17.52;;
23310;SDS011;11828;51.508;18.118;2023-02-10T03:36:32;40.83;;;16.17;;
23310;SDS011;11828;51.508;18.118;2023-02-10T03:38:59;52.33;;;16.98;;
23310;SDS011;11828;51.508;18.118;2023-02-10T03:41:27;36.47;;;15.35;;
23310;SDS011;11828;51.508;18.118;2023-02-10T03:43:53;33.60;;;13.98;;
23310;SDS011;11828;51.508;18.118;2023-02-10T03:46:19;35.53;;;14.60;;
23310;SDS011;11828;51.508;18.118;2023-02-10T03:48:46;33.65;;;16.13;;
23310;SDS011;11828;51.508;18.118;2023-02-10T03:51:13;41.75;;;16.48;;
23310;SDS011;11828;51.508;18.118;2023-02-10T03:53:39;56.08;;;18.00;;
23310;SDS011;11828;51.508;18.118;2023-02-10T03:56:05;38.25;;;15.32;;
23310;SDS011;11828;51.508;18.118;2023-02-10T03:58:32;38.53;;;15.68;;
23310;SDS011;11828;51.508;18.118;2023-02-10T04:00:59;39.10;;;14.73;;
23310;SDS011;11828;51.508;18.118;2023-02-10T04:03:25;37.28;;;14.65;;
23310;SDS011;11828;51.508;18.118;2023-02-10T04:05:51;36.40;;;15.32;;
23310;SDS011;11828;51.508;18.118;2023-02-10T04:08:17;32.80;;;13.80;;
23310;SDS011;11828;51.508;18.118;2023-02-10T04:10:44;44.47;;;15.88;;
23310;SDS011;11828;51.508;18.118;2023-02-10T04:13:10;40.65;;;14.82;;
23310;SDS011;11828;51.508;18.118;2023-02-10T04:15:36;46.55;;;15.75;;
23310;SDS011;11828;51.508;18.118;2023-02-10T04:18:02;39.90;;;15.02;;
23310;SDS011;11828;51.508;18.118;2023-02-10T04:20:29;38.63;;;14.23;;
23310;SDS011;11828;51.508;18.118;2023-02-10T04:22:55;38.65;;;15.23;;
23310;SDS011;11828;51.508;18.118;2023-02-10T04:25:21;36.30;;;14.23;;
23310;SDS011;11828;51.508;18.118;2023-02-10T04:27:47;37.67;;;14.13;;
23310;SDS011;11828;51.508;18.118;2023-02-10T04:30:13;41.72;;;15.57;;
23310;SDS011;11828;51.508;18.118;2023-02-10T04:32:40;36.67;;;14.65;;
23310;SDS011;11828;51.508;18.118;2023-02-10T04:35:06;34.53;;;14.48;;
23310;SDS011;11828;51.508;18.118;2023-02-10T04:37:33;35.80;;;14.52;;
23310;SDS011;11828;51.508;18.118;2023-02-10T04:39:59;37.67;;;15.60;;
23310;SDS011;11828;51.508;18.118;2023-02-10T04:42:25;42.45;;;16.88;;
23310;SDS011;11828;51.508;18.118;2023-02-10T04:44:58;52.78;;;19.58;;
23310;SDS011;11828;51.508;18.118;2023-02-10T04:47:25;62.58;;;22.77;;
23310;SDS011;11828;51.508;18.118;2023-02-10T04:49:53;69.18;;;23.55;;
23310;SDS011;11828;51.508;18.118;2023-02-10T04:52:20;62.25;;;22.90;;
23310;SDS011;11828;51.508;18.118;2023-02-10T04:54:46;70.70;;;23.75;;
23310;SDS011;11828;51.508;18.118;2023-02-10T04:57:12;58.35;;;21.63;;
23310;SDS011;11828;51.508;18.118;2023-02-10T04:59:38;52.95;;;21.20;;
23310;SDS011;11828;51.508;18.118;2023-02-10T05:02:05;52.15;;;19.90;;
23310;SDS011;11828;51.508;18.118;2023-02-10T05:04:31;42.65;;;17.67;;
23310;SDS011;11828;51.508;18.118;2023-02-10T05:06:58;48.83;;;17.67;;
23310;SDS011;11828;51.508;18.118;2023-02-10T05:09:24;50.72;;;19.85;;
23310;SDS011;11828;51.508;18.118;2023-02-10T05:11:52;47.47;;;18.63;;
23310;SDS011;11828;51.508;18.118;2023-02-10T05:14:19;50.22;;;19.50;;
23310;SDS011;11828;51.508;18.118;2023-02-10T05:16:45;70.57;;;21.08;;
23310;SDS011;11828;51.508;18.118;2023-02-10T05:19:11;50.33;;;18.88;;
23310;SDS011;11828;51.508;18.118;2023-02-10T05:21:38;45.20;;;21.00;;
23310;SDS011;11828;51.508;18.118;2023-02-10T05:24:04;45.42;;;19.20;;
23310;SDS011;11828;51.508;18.118;2023-02-10T05:26:31;43.40;;;17.92;;
23310;SDS011;11828;51.508;18.118;2023-02-10T05:28:57;39.35;;;17.67;;
23310;SDS011;11828;51.508;18.118;2023-02-10T05:31:24;47.50;;;18.95;;
23310;SDS011;11828;51.508;18.118;2023-02-10T05:33:50;47.90;;;19.67;;
23310;SDS011;11828;51.508;18.118;2023-02-10T05:36:17;47.00;;;19.25;;
23310;SDS011;11828;51.508;18.118;2023-02-10T05:38:43;42.47;;;17.42;;
23310;SDS011;11828;51.508;18.118;2023-02-10T05:41:29;55.63;;;20.60;;
23310;SDS011;11828;51.508;18.118;2023-02-10T05:43:57;51.95;;;23.05;;
23310;SDS011;11828;51.508;18.118;2023-02-10T05:46:23;53.97;;;21.67;;
23310;SDS011;11828;51.508;18.118;2023-02-10T05:48:49;47.90;;;19.83;;
23310;SDS011;11828;51.508;18.118;2023-02-10T05:51:16;46.67;;;18.63;;
23310;SDS011;11828;51.508;18.118;2023-02-10T05:53:42;44.33;;;18.13;;
23310;SDS011;11828;51.508;18.118;2023-02-10T05:56:08;40.70;;;16.70;;
23310;SDS011;11828;51.508;18.118;2023-02-10T05:58:34;51.60;;;17.02;;
23310;SDS011;11828;51.508;18.118;2023-02-10T06:01:00;39.25;;;15.70;;
23310;SDS011;11828;51.508;18.118;2023-02-10T06:03:33;49.38;;;18.58;;
23310;SDS011;11828;51.508;18.118;2023-02-10T06:05:59;52.88;;;19.92;;
23310;SDS011;11828;51.508;18.118;2023-02-10T06:08:26;56.92;;;20.08;;
23310;SDS011;11828;51.508;18.118;2023-02-10T06:10:52;55.65;;;18.10;;
23310;SDS011;11828;51.508;18.118;2023-02-10T06:13:19;47.67;;;17.10;;
23310;SDS011;11828;51.508;18.118;2023-02-10T06:15:46;46.60;;;16.00;;
23310;SDS011;11828;51.508;18.118;2023-02-10T06:18:12;64.03;;;17.77;;
23310;SDS011;11828;51.508;18.118;2023-02-10T06:20:38;48.08;;;16.80;;
23310;SDS011;11828;51.508;18.118;2023-02-10T06:23:05;43.35;;;17.05;;
23310;SDS011;11828;51.508;18.118;2023-02-10T06:25:31;39.45;;;17.10;;
23310;SDS011;11828;51.508;18.118;2023-02-10T06:27:58;48.20;;;17.05;;
23310;SDS011;11828;51.508;18.118;2023-02-10T06:30:25;47.33;;;18.52;;
23310;SDS011;11828;51.508;18.118;2023-02-10T06:32:52;47.47;;;18.58;;
23310;SDS011;11828;51.508;18.118;2023-02-10T06:35:18;50.70;;;18.45;;
23310;SDS011;11828;51.508;18.118;2023-02-10T06:37:44;43.40;;;17.30;;
23310;SDS011;11828;51.508;18.118;2023-02-10T06:40:10;46.92;;;19.27;;
23310;SDS011;11828;51.508;18.118;2023-02-10T06:42:37;45.15;;;18.13;;
23310;SDS011;11828;51.508;18.118;2023-02-10T06:45:04;46.15;;;19.30;;
23310;SDS011;11828;51.508;18.118;2023-02-10T06:47:31;54.88;;;21.08;;
23310;SDS011;11828;51.508;18.118;2023-02-10T06:49:57;49.95;;;19.77;;
23310;SDS011;11828;51.508;18.118;2023-02-10T06:52:23;63.00;;;20.95;;
23310;SDS011;11828;51.508;18.118;2023-02-10T06:54:52;48.22;;;19.52;;
23310;SDS011;11828;51.508;18.118;2023-02-10T06:57:18;50.08;;;19.58;;
23310;SDS011;11828;51.508;18.118;2023-02-10T06:59:44;57.70;;;21.35;;
23310;SDS011;11828;51.508;18.118;2023-02-10T07:02:11;67.97;;;29.13;;
23310;SDS011;11828;51.508;18.118;2023-02-10T07:04:38;75.40;;;29.70;;
23310;SDS011;11828;51.508;18.118;2023-02-10T07:07:04;67.60;;;28.17;;
23310;SDS011;11828;51.508;18.118;2023-02-10T07:09:31;59.08;;;26.90;;
23310;SDS011;11828;51.508;18.118;2023-02-10T07:11:57;77.50;;;29.25;;
23310;SDS011;11828;51.508;18.118;2023-02-10T07:14:25;60.10;;;25.45;;
23310;SDS011;11828;51.508;18.118;2023-02-10T07:16:51;61.97;;;23.10;;
23310;SDS011;11828;51.508;18.118;2023-02-10T07:19:17;50.38;;;20.83;;
23310;SDS011;11828;51.508;18.118;2023-02-10T07:21:43;50.72;;;20.58;;
23310;SDS011;11828;51.508;18.118;2023-02-10T07:24:09;49.72;;;20.08;;
23310;SDS011;11828;51.508;18.118;2023-02-10T07:26:36;64.85;;;23.67;;
23310;SDS011;11828;51.508;18.118;2023-02-10T07:29:02;69.05;;;28.05;;
23310;SDS011;11828;51.508;18.118;2023-02-10T07:31:28;61.55;;;28.50;;
23310;SDS011;11828;51.508;18.118;2023-02-10T07:33:54;55.15;;;23.80;;
23310;SDS011;11828;51.508;18.118;2023-02-10T07:36:20;53.67;;;23.75;;
23310;SDS011;11828;51.508;18.118;2023-02-10T07:38:47;51.13;;;19.90;;
23310;SDS011;11828;51.508;18.118;2023-02-10T07:41:13;67.47;;;23.15;;
23310;SDS011;11828;51.508;18.118;2023-02-10T07:43:39;68.55;;;28.67;;
23310;SDS011;11828;51.508;18.118;2023-02-10T07:46:05;76.88;;;26.98;;
23310;SDS011;11828;51.508;18.118;2023-02-10T07:48:31;47.85;;;21.73;;
23310;SDS011;11828;51.508;18.118;2023-02-10T07:50:57;47.83;;;20.08;;
23310;SDS011;11828;51.508;18.118;2023-02-10T07:53:24;49.50;;;19.88;;
23310;SDS011;11828;51.508;18.118;2023-02-10T07:55:50;52.50;;;18.95;;
23310;SDS011;11828;51.508;18.118;2023-02-10T07:58:16;56.38;;;21.77;;
23310;SDS011;11828;51.508;18.118;2023-02-10T08:00:43;64.88;;;27.85;;
23310;SDS011;11828;51.508;18.118;2023-02-10T08:03:13;76.32;;;28.05;;
23310;SDS011;11828;51.508;18.118;2023-02-10T08:05:40;58.85;;;24.42;;
23310;SDS011;11828;51.508;18.118;2023-02-10T08:08:08;64.60;;;24.17;;
23310;SDS011;11828;51.508;18.118;2023-02-10T08:10:36;56.75;;;20.17;;
23310;SDS011;11828;51.508;18.118;2023-02-10T08:13:04;42.85;;;17.23;;
23310;SDS011;11828;51.508;18.118;2023-02-10T08:15:30;62.40;;;19.25;;
23310;SDS011;11828;51.508;18.118;2023-02-10T08:17:58;62.97;;;18.88;;
23310;SDS011;11828;51.508;18.118;2023-02-10T08:20:25;51.00;;;17.70;;
23310;SDS011;11828;51.508;18.118;2023-02-10T08:22:55;58.30;;;18.77;;
23310;SDS011;11828;51.508;18.118;2023-02-10T08:25:23;62.58;;;19.83;;
23310;SDS011;11828;51.508;18.118;2023-02-10T08:27:49;50.13;;;18.00;;
23310;SDS011;11828;51.508;18.118;2023-02-10T08:30:16;53.85;;;19.73;;
23310;SDS011;11828;51.508;18.118;2023-02-10T08:32:43;57.08;;;19.63;;
23310;SDS011;11828;51.508;18.118;2023-02-10T08:35:09;56.33;;;19.77;;
23310;SDS011;11828;51.508;18.118;2023-02-10T08:37:36;58.95;;;21.40;;
23310;SDS011;11828;51.508;18.118;2023-02-10T08:40:02;52.72;;;20.30;;
23310;SDS011;11828;51.508;18.118;2023-02-10T08:42:31;60.20;;;21.25;;
23310;SDS011;11828;51.508;18.118;2023-02-10T08:44:58;65.75;;;20.92;;
23310;SDS011;11828;51.508;18.118;2023-02-10T08:47:25;58.45;;;21.25;;
23310;SDS011;11828;51.508;18.118;2023-02-10T08:49:51;60.63;;;21.70;;
23310;SDS011;11828;51.508;18.118;2023-02-10T08:52:18;55.97;;;19.15;;
23310;SDS011;11828;51.508;18.118;2023-02-10T08:54:46;77.78;;;21.17;;
23310;SDS011;11828;51.508;18.118;2023-02-10T08:57:12;53.92;;;19.27;;
23310;SDS011;11828;51.508;18.118;2023-02-10T08:59:41;55.72;;;20.75;;
23310;SDS011;11828;51.508;18.118;2023-02-10T09:02:09;64.68;;;22.60;;
23310;SDS011;11828;51.508;18.118;2023-02-10T09:04:37;94.97;;;23.20;;
23310;SDS011;11828;51.508;18.118;2023-02-10T09:07:04;49.17;;;19.20;;
23310;SDS011;11828;51.508;18.118;2023-02-10T09:09:30;55.92;;;19.55;;
23310;SDS011;11828;51.508;18.118;2023-02-10T09:11:57;71.72;;;21.70;;
23310;SDS011;11828;51.508;18.118;2023-02-10T09:14:23;66.55;;;22.33;;
23310;SDS011;11828;51.508;18.118;2023-02-10T09:16:49;55.45;;;20.33;;
23310;SDS011;11828;51.508;18.118;2023-02-10T09:19:16;49.17;;;18.50;;
23310;SDS011;11828;51.508;18.118;2023-02-10T09:21:43;81.63;;;29.15;;
23310;SDS011;11828;51.508;18.118;2023-02-10T09:24:09;64.40;;;24.00;;
23310;SDS011;11828;51.508;18.118;2023-02-10T09:26:36;54.40;;;20.67;;
23310;SDS011;11828;51.508;18.118;2023-02-10T09:29:02;56.35;;;22.13;;
23310;SDS011;11828;51.508;18.118;2023-02-10T09:31:28;67.97;;;24.65;;
23310;SDS011;11828;51.508;18.118;2023-02-10T09:33:54;64.32;;;22.20;;
23310;SDS011;11828;51.508;18.118;2023-02-10T09:36:21;57.53;;;21.92;;
23310;SDS011;11828;51.508;18.118;2023-02-10T09:38:47;66.75;;;25.52;;
23310;SDS011;11828;51.508;18.118;2023-02-10T09:52:28;77.30;;;26.70;;
23310;SDS011;11828;51.508;18.118;2023-02-10T09:55:20;63.75;;;24.58;;
23310;SDS011;11828;51.508;18.118;2023-02-10T09:57:51;65.47;;;28.00;;
23310;SDS011;11828;51.508;18.118;2023-02-10T10:00:32;77.20;;;28.23;;
23310;SDS011;11828;51.508;18.118;2023-02-10T10:03:06;69.32;;;28.42;;
23310;SDS011;11828;51.508;18.118;2023-02-10T10:05:50;69.00;;;23.42;;
23310;SDS011;11828;51.508;18.118;2023-02-10T10:08:47;75.20;;;23.02;;
23310;SDS011;11828;51.508;18.118;2023-02-10T10:11:26;67.43;;;22.33;;
23310;SDS011;11828;51.508;18.118;2023-02-10T10:28:28;63.80;;;23.30;;
23310;SDS011;11828;51.508;18.118;2023-02-10T10:31:32;83.38;;;28.35;;
23310;SDS011;11828;51.508;18.118;2023-02-10T10:34:08;74.15;;;25.77;;
23310;SDS011;11828;51.508;18.118;2023-02-10T10:36:48;66.50;;;20.63;;
23310;SDS011;11828;51.508;18.118;2023-02-10T10:39:38;50.90;;;18.00;;
23310;SDS011;11828;51.508;18.118;2023-02-10T10:42:16;47.00;;;15.18;;
23310;SDS011;11828;51.508;18.118;2023-02-10T10:44:58;50.40;;;15.95;;
23310;SDS011;11828;51.508;18.118;2023-02-10T10:50:02;65.60;;;21.77;;
23310;SDS011;11828;51.508;18.118;2023-02-10T10:52:31;58.22;;;23.95;;
23310;SDS011;11828;51.508;18.118;2023-02-10T10:55:05;48.03;;;17.70;;
23310;SDS011;11828;51.508;18.118;2023-02-10T10:57:44;56.60;;;19.08;;
23310;SDS011;11828;51.508;18.118;2023-02-10T11:00:21;72.20;;;20.95;;
23310;SDS011;11828;51.508;18.118;2023-02-10T11:03:01;54.10;;;18.58;;
23310;SDS011;11828;51.508;18.118;2023-02-10T11:05:32;70.85;;;19.70;;
23310;SDS011;11828;51.508;18.118;2023-02-10T11:08:02;39.83;;;17.13;;
23310;SDS011;11828;51.508;18.118;2023-02-10T11:10:33;43.72;;;17.15;;
23310;SDS011;11828;51.508;18.118;2023-02-10T11:13:32;37.15;;;16.05;;
23310;SDS011;11828;51.508;18.118;2023-02-10T11:16:08;41.55;;;15.77;;
23310;SDS011;11828;51.508;18.118;2023-02-10T11:18:57;49.70;;;18.95;;
23310;SDS011;11828;51.508;18.118;2023-02-10T11:21:36;55.95;;;19.73;;
23310;SDS011;11828;51.508;18.118;2023-02-10T11:24:18;39.30;;;16.75;;
23310;SDS011;11828;51.508;18.118;2023-02-10T11:27:32;38.63;;;15.68;;
23310;SDS011;11828;51.508;18.118;2023-02-10T11:29:47;40.35;;;15.82;;
23310;SDS011;11828;51.508;18.118;2023-02-10T11:32:21;36.35;;;15.43;;
23310;SDS011;11828;51.508;18.118;2023-02-10T11:34:52;37.03;;;14.68;;
23310;SDS011;11828;51.508;18.118;2023-02-10T11:39:55;43.95;;;16.88;;
23310;SDS011;11828;51.508;18.118;2023-02-10T11:42:28;56.92;;;18.92;;
23310;SDS011;11828;51.508;18.118;2023-02-10T11:47:42;50.80;;;18.08;;
23310;SDS011;11828;51.508;18.118;2023-02-10T11:50:23;48.70;;;17.60;;
23310;SDS011;11828;51.508;18.118;2023-02-10T11:52:53;37.67;;;15.55;;
23310;SDS011;11828;51.508;18.118;2023-02-10T11:55:20;42.33;;;16.60;;
23310;SDS011;11828;51.508;18.118;2023-02-10T12:02:08;45.67;;;18.50;;
23310;SDS011;11828;51.508;18.118;2023-02-10T12:07:23;53.97;;;16.98;;
23310;SDS011;11828;51.508;18.118;2023-02-10T12:09:55;43.90;;;16.38;;
23310;SDS011;11828;51.508;18.118;2023-02-10T12:12:34;42.08;;;17.20;;
23310;SDS011;11828;51.508;18.118;2023-02-10T12:15:15;44.88;;;18.10;;
23310;SDS011;11828;51.508;18.118;2023-02-10T12:26:25;41.45;;;16.23;;
23310;SDS011;11828;51.508;18.118;2023-02-10T12:37:15;50.38;;;16.35;;
23310;SDS011;11828;51.508;18.118;2023-02-10T12:43:14;44.45;;;15.00;;
23310;SDS011;11828;51.508;18.118;2023-02-10T12:48:42;40.92;;;15.32;;
23310;SDS011;11828;51.508;18.118;2023-02-10T12:54:36;41.25;;;14.93;;
23310;SDS011;11828;51.508;18.118;2023-02-10T12:57:32;50.72;;;17.13;;
23310;SDS011;11828;51.508;18.118;2023-02-10T13:00:09;43.42;;;17.40;;
23310;SDS011;11828;51.508;18.118;2023-02-10T13:05:32;43.38;;;16.77;;
23310;SDS011;11828;51.508;18.118;2023-02-10T13:08:10;42.95;;;17.48;;
23310;SDS011;11828;51.508;18.118;2023-02-10T13:10:53;55.33;;;18.88;;
23310;SDS011;11828;51.508;18.118;2023-02-10T13:13:26;47.10;;;17.00;;
23310;SDS011;11828;51.508;18.118;2023-02-10T13:18:56;48.38;;;16.50;;
23310;SDS011;11828;51.508;18.118;2023-02-10T13:21:48;44.50;;;15.27;;
23310;SDS011;11828;51.508;18.118;2023-02-10T13:24:56;43.75;;;14.98;;
23310;SDS011;11828;51.508;18.118;2023-02-10T13:27:53;39.17;;;16.42;;
23310;SDS011;11828;51.508;18.118;2023-02-10T13:34:16;45.67;;;16.58;;
23310;SDS011;11828;51.508;18.118;2023-02-10T13:36:52;43.17;;;16.20;;
23310;SDS011;11828;51.508;18.118;2023-02-10T13:39:33;47.05;;;18.67;;
23310;SDS011;11828;51.508;18.118;2023-02-10T13:42:19;46.05;;;18.45;;
23310;SDS011;11828;51.508;18.118;2023-02-10T13:47:49;53.47;;;21.00;;
23310;SDS011;11828;51.508;18.118;2023-02-10T13:50:25;91.25;;;29.33;;
23310;SDS011;11828;51.508;18.118;2023-02-10T13:53:00;71.30;;;26.88;;
23310;SDS011;11828;51.508;18.118;2023-02-10T13:55:48;52.80;;;20.90;;
23310;SDS011;11828;51.508;18.118;2023-02-10T13:58:24;54.40;;;21.20;;
23310;SDS011;11828;51.508;18.118;2023-02-10T14:00:56;44.50;;;17.33;;
23310;SDS011;11828;51.508;18.118;2023-02-10T14:03:24;44.45;;;17.98;;
23310;SDS011;11828;51.508;18.118;2023-02-10T14:08:38;47.13;;;17.13;;
23310;SDS011;11828;51.508;18.118;2023-02-10T14:13:39;52.13;;;21.45;;
23310;SDS011;11828;51.508;18.118;2023-02-10T14:18:58;66.90;;;28.95;;
23310;SDS011;11828;51.508;18.118;2023-02-10T14:21:45;114.90;;;44.97;;
23310;SDS011;11828;51.508;18.118;2023-02-10T14:24:18;77.22;;;32.92;;
23310;SDS011;11828;51.508;18.118;2023-02-10T14:26:52;76.78;;;30.77;;
23310;SDS011;11828;51.508;18.118;2023-02-10T14:29:23;65.10;;;25.02;;
23310;SDS011;11828;51.508;18.118;2023-02-10T14:31:52;67.03;;;29.05;;
23310;SDS011;11828;51.508;18.118;2023-02-10T14:36:53;56.50;;;23.27;;
23310;SDS011;11828;51.508;18.118;2023-02-10T14:39:22;59.10;;;22.15;;
23310;SDS011;11828;51.508;18.118;2023-02-10T14:41:53;51.58;;;22.80;;
23310;SDS011;11828;51.508;18.118;2023-02-10T14:47:03;55.55;;;24.45;;
23310;SDS011;11828;51.508;18.118;2023-02-10T14:49:31;63.72;;;22.98;;
23310;SDS011;11828;51.508;18.118;2023-02-10T14:52:01;65.50;;;24.20;;
23310;SDS011;11828;51.508;18.118;2023-02-10T14:54:28;64.50;;;23.13;;
23310;SDS011;11828;51.508;18.118;2023-02-10T14:56:59;55.58;;;21.25;;
23310;SDS011;11828;51.508;18.118;2023-02-10T14:59:29;67.63;;;26.92;;
23310;SDS011;11828;51.508;18.118;2023-02-10T15:02:00;76.47;;;30.27;;
23310;SDS011;11828;51.508;18.118;2023-02-10T15:04:42;68.30;;;25.85;;
23310;SDS011;11828;51.508;18.118;2023-02-10T15:07:11;61.30;;;22.25;;
23310;SDS011;11828;51.508;18.118;2023-02-10T15:09:46;57.53;;;21.45;;
23310;SDS011;11828;51.508;18.118;2023-02-10T15:12:14;60.80;;;21.88;;
23310;SDS011;11828;51.508;18.118;2023-02-10T15:17:14;58.92;;;23.40;;
23310;SDS011;11828;51.508;18.118;2023-02-10T15:19:57;57.17;;;21.88;;
23310;SDS011;11828;51.508;18.118;2023-02-10T15:22:36;60.00;;;23.63;;
23310;SDS011;11828;51.508;18.118;2023-02-10T15:41:32;63.65;;;31.67;;
23310;SDS011;11828;51.508;18.118;2023-02-10T15:44:22;60.70;;;26.63;;
23310;SDS011;11828;51.508;18.118;2023-02-10T15:47:36;80.05;;;33.47;;
23310;SDS011;11828;51.508;18.118;2023-02-10T15:50:09;82.40;;;33.53;;
23310;SDS011;11828;51.508;18.118;2023-02-10T15:52:38;90.40;;;35.72;;
23310;SDS011;11828;51.508;18.118;2023-02-10T15:55:30;85.85;;;33.45;;
23310;SDS011;11828;51.508;18.118;2023-02-10T15:58:00;111.53;;;35.72;;
23310;SDS011;11828;51.508;18.118;2023-02-10T16:00:29;100.43;;;39.58;;
23310;SDS011;11828;51.508;18.118;2023-02-10T16:02:58;101.25;;;38.17;;
23310;SDS011;11828;51.508;18.118;2023-02-10T16:05:26;87.22;;;35.70;;
23310;SDS011;11828;51.508;18.118;2023-02-10T16:07:56;78.57;;;30.17;;
23310;SDS011;11828;51.508;18.118;2023-02-10T16:10:29;73.60;;;27.83;;
23310;SDS011;11828;51.508;18.118;2023-02-10T16:12:56;69.25;;;27.58;;
23310;SDS011;11828;51.508;18.118;2023-02-10T16:15:23;80.25;;;33.38;;
23310;SDS011;11828;51.508;18.118;2023-02-10T16:17:54;80.57;;;28.92;;
23310;SDS011;11828;51.508;18.118;2023-02-10T16:20:28;86.78;;;28.98;;
23310;SDS011;11828;51.508;18.118;2023-02-10T16:22:57;78.65;;;29.17;;
23310;SDS011;11828;51.508;18.118;2023-02-10T16:25:26;83.63;;;31.15;;
23310;SDS011;11828;51.508;18.118;2023-02-10T16:27:53;69.30;;;30.05;;
23310;SDS011;11828;51.508;18.118;2023-02-10T16:30:21;78.68;;;31.20;;
23310;SDS011;11828;51.508;18.118;2023-02-10T16:32:52;82.82;;;31.52;;
23310;SDS011;11828;51.508;18.118;2023-02-10T16:35:19;61.67;;;27.80;;
23310;SDS011;11828;51.508;18.118;2023-02-10T16:37:46;70.82;;;34.35;;
23310;SDS011;11828;51.508;18.118;2023-02-10T16:40:21;87.07;;;52.40;;
23310;SDS011;11828;51.508;18.118;2023-02-10T16:42:53;107.60;;;63.40;;
23310;SDS011;11828;51.508;18.118;2023-02-10T16:45:21;104.35;;;61.78;;